createdAt,value
2019-01-18T00:00:03.589Z,0
2019-01-18T00:01:05.026Z,0
2019-01-18T00:02:06.447Z,0
2019-01-18T00:03:07.839Z,0
2019-01-18T00:04:09.220Z,0
2019-01-18T00:05:10.602Z,0
2019-01-18T00:06:12.157Z,0
2019-01-18T00:07:13.722Z,0
2019-01-18T00:08:15.105Z,0
2019-01-18T00:09:16.485Z,0
2019-01-18T00:10:17.974Z,0
2019-01-18T00:11:19.476Z,0
2019-01-18T00:12:20.854Z,0
2019-01-18T00:13:22.232Z,0
2019-01-18T00:14:23.616Z,0
2019-01-18T00:15:24.990Z,0
2019-01-18T00:16:26.400Z,0
2019-01-18T00:17:27.849Z,0
2019-01-18T00:18:29.213Z,0
2019-01-18T00:19:30.593Z,0
2019-01-18T00:20:31.971Z,0
2019-01-18T00:21:33.360Z,0
2019-01-18T00:22:34.740Z,0
2019-01-18T00:23:36.114Z,0
2019-01-18T00:24:37.500Z,0
2019-01-18T00:25:38.878Z,0
2019-01-18T00:26:40.258Z,0
2019-01-18T00:27:41.654Z,0
2019-01-18T00:28:43.041Z,0
2019-01-18T00:29:44.441Z,0
2019-01-18T00:30:45.811Z,0
2019-01-18T00:31:47.207Z,0
2019-01-18T00:32:48.575Z,0
2019-01-18T00:33:49.987Z,0
2019-01-18T00:34:51.368Z,0
2019-01-18T00:35:52.746Z,0
2019-01-18T00:36:54.155Z,0
2019-01-18T00:37:55.544Z,0
2019-01-18T00:38:56.919Z,0
2019-01-18T00:39:58.329Z,0
2019-01-18T00:40:59.711Z,0
2019-01-18T00:42:01.087Z,0
2019-01-18T00:43:02.472Z,0
2019-01-18T00:44:03.844Z,0
2019-01-18T00:45:05.272Z,0
2019-01-18T00:46:06.648Z,0
2019-01-18T00:47:08.063Z,0
2019-01-18T00:48:09.438Z,0
2019-01-18T00:49:10.833Z,0
2019-01-18T00:50:12.209Z,0
2019-01-18T00:51:13.592Z,0
2019-01-18T00:52:14.971Z,0
2019-01-18T00:53:16.351Z,0
2019-01-18T00:54:17.726Z,0
2019-01-18T00:55:19.155Z,0
2019-01-18T00:56:20.537Z,0
2019-01-18T00:57:22.078Z,0
2019-01-18T00:58:23.536Z,0
2019-01-18T00:59:24.914Z,0
2019-01-18T01:00:26.291Z,0
2019-01-18T01:01:27.667Z,0
2019-01-18T01:02:29.044Z,0
2019-01-18T01:03:30.420Z,0
2019-01-18T01:04:31.805Z,0
2019-01-18T01:05:33.194Z,0
2019-01-18T01:06:34.649Z,0
2019-01-18T01:07:36.033Z,0
2019-01-18T01:08:37.409Z,0
2019-01-18T01:09:38.795Z,0
2019-01-18T01:10:40.174Z,0
2019-01-18T01:11:41.562Z,0
2019-01-18T01:12:42.947Z,0
2019-01-18T01:13:44.322Z,0
2019-01-18T01:14:45.699Z,0
2019-01-18T01:15:47.076Z,0
2019-01-18T01:16:48.461Z,0
2019-01-18T01:17:49.842Z,0
2019-01-18T01:18:51.262Z,0
2019-01-18T01:19:52.641Z,0
2019-01-18T01:20:54.017Z,0
2019-01-18T01:21:55.421Z,0
2019-01-18T01:22:56.803Z,0
2019-01-18T01:23:58.185Z,0
2019-01-18T01:24:59.607Z,0
2019-01-18T01:26:01.085Z,0
2019-01-18T01:27:02.467Z,0
2019-01-18T01:28:03.857Z,0
2019-01-18T01:29:05.269Z,0
2019-01-18T01:30:06.646Z,0
2019-01-18T01:31:08.027Z,0
2019-01-18T01:32:09.461Z,0
2019-01-18T01:33:11.973Z,0
2019-01-18T01:34:13.401Z,0
2019-01-18T01:35:14.746Z,0
2019-01-18T01:36:16.125Z,0
2019-01-18T01:37:17.502Z,0
2019-01-18T01:38:18.923Z,0
2019-01-18T01:39:20.301Z,0
2019-01-18T01:40:21.683Z,0
2019-01-18T01:41:23.054Z,0
2019-01-18T01:42:24.451Z,0
2019-01-18T01:43:25.827Z,0
2019-01-18T01:44:27.207Z,0
2019-01-18T01:45:28.593Z,0
2019-01-18T01:46:30.046Z,0
2019-01-18T01:47:31.567Z,0
2019-01-18T01:48:32.963Z,0
2019-01-18T01:49:34.342Z,0
2019-01-18T01:50:35.769Z,0
2019-01-18T01:51:37.148Z,0
2019-01-18T01:52:38.526Z,0
2019-01-18T01:53:39.906Z,0
2019-01-18T01:54:41.284Z,0
2019-01-18T01:55:42.661Z,0
2019-01-18T01:56:44.074Z,0
2019-01-18T01:57:45.432Z,0
2019-01-18T01:58:46.812Z,0
2019-01-18T01:59:49.977Z,0
2019-01-18T02:00:49.536Z,0
2019-01-18T02:01:50.917Z,0
2019-01-18T02:02:52.291Z,0
2019-01-18T02:03:53.670Z,0
2019-01-18T02:04:55.049Z,0
2019-01-18T02:05:56.431Z,0
2019-01-18T02:06:57.808Z,0
2019-01-18T02:07:59.189Z,0
2019-01-18T02:09:00.570Z,0
2019-01-18T02:10:01.947Z,0
2019-01-18T02:11:03.320Z,0
2019-01-18T02:12:04.697Z,0
2019-01-18T02:13:06.074Z,0
2019-01-18T02:14:07.453Z,0
2019-01-18T02:15:08.830Z,0
2019-01-18T02:16:10.210Z,0
2019-01-18T02:17:11.692Z,0
2019-01-18T02:18:13.077Z,0
2019-01-18T02:19:14.453Z,0
2019-01-18T02:20:15.836Z,0
2019-01-18T02:21:17.230Z,0
2019-01-18T02:22:18.605Z,0
2019-01-18T02:23:19.983Z,0
2019-01-18T02:24:21.360Z,0
2019-01-18T02:25:22.737Z,0
2019-01-18T02:26:24.115Z,0
2019-01-18T02:27:25.492Z,0
2019-01-18T02:28:27.014Z,0
2019-01-18T02:29:28.395Z,0
2019-01-18T02:30:29.775Z,0
2019-01-18T02:31:31.147Z,0
2019-01-18T02:32:32.537Z,0
2019-01-18T02:33:33.899Z,0
2019-01-18T02:34:35.275Z,0
2019-01-18T02:35:36.702Z,0
2019-01-18T02:36:38.144Z,0
2019-01-18T02:37:39.577Z,0
2019-01-18T02:38:41.238Z,0
2019-01-18T02:39:42.628Z,0
2019-01-18T02:40:43.998Z,0
2019-01-18T02:41:45.376Z,0
2019-01-18T02:42:46.794Z,0
2019-01-18T02:43:48.179Z,0
2019-01-18T02:44:49.557Z,0
2019-01-18T02:45:50.929Z,0
2019-01-18T02:46:52.311Z,0
2019-01-18T02:47:53.692Z,0
2019-01-18T02:48:55.121Z,0
2019-01-18T02:49:56.505Z,0
2019-01-18T02:50:57.882Z,0
2019-01-18T02:51:59.266Z,0
2019-01-18T02:53:00.642Z,0
2019-01-18T02:54:02.040Z,0
2019-01-18T02:55:03.472Z,0
2019-01-18T02:56:04.859Z,0
2019-01-18T02:57:06.241Z,0
2019-01-18T02:58:07.620Z,0
2019-01-18T02:59:08.999Z,0
2019-01-18T03:00:10.375Z,0
2019-01-18T03:01:11.810Z,0
2019-01-18T03:02:13.204Z,0
2019-01-18T03:03:14.582Z,0
2019-01-18T03:04:15.955Z,0
2019-01-18T03:05:17.339Z,0
2019-01-18T03:06:18.731Z,0
2019-01-18T03:07:20.113Z,0
2019-01-18T03:08:21.494Z,0
2019-01-18T03:09:22.898Z,0
2019-01-18T03:10:24.281Z,0
2019-01-18T03:11:25.655Z,0
2019-01-18T03:12:27.033Z,0
2019-01-18T03:13:28.413Z,0
2019-01-18T03:14:29.786Z,0
2019-01-18T03:15:31.231Z,0
2019-01-18T03:16:32.567Z,0
2019-01-18T03:17:33.990Z,0
2019-01-18T03:18:35.324Z,0
2019-01-18T03:19:36.705Z,0
2019-01-18T03:20:38.151Z,0
2019-01-18T03:21:39.530Z,0
2019-01-18T03:22:40.924Z,0
2019-01-18T03:23:42.298Z,0
2019-01-18T03:24:43.681Z,0
2019-01-18T03:25:45.072Z,0
2019-01-18T03:26:46.441Z,0
2019-01-18T03:27:47.825Z,0
2019-01-18T03:28:49.199Z,0
2019-01-18T03:29:50.625Z,0
2019-01-18T03:30:52.122Z,0
2019-01-18T03:31:53.565Z,0
2019-01-18T03:32:54.961Z,0
2019-01-18T03:33:56.344Z,0
2019-01-18T03:34:57.781Z,0
2019-01-18T03:35:59.164Z,0
2019-01-18T03:37:00.685Z,0
2019-01-18T03:38:02.063Z,0
2019-01-18T03:39:03.439Z,0
2019-01-18T03:40:04.823Z,0
2019-01-18T03:41:06.198Z,0
2019-01-18T03:42:07.691Z,0
2019-01-18T03:43:09.074Z,0
2019-01-18T03:44:10.464Z,0
2019-01-18T03:45:11.871Z,0
2019-01-18T03:46:13.269Z,0
2019-01-18T03:47:14.645Z,0
2019-01-18T03:48:16.295Z,0
2019-01-18T03:49:17.705Z,0
2019-01-18T03:50:19.120Z,0
2019-01-18T03:51:20.474Z,0
2019-01-18T03:52:21.848Z,0
2019-01-18T03:53:23.226Z,0
2019-01-18T03:54:24.620Z,0
2019-01-18T03:55:25.991Z,0
2019-01-18T03:56:27.370Z,0
2019-01-18T03:57:28.744Z,0
2019-01-18T03:58:30.252Z,0
2019-01-18T03:59:31.613Z,0
2019-01-18T04:00:32.992Z,0
2019-01-18T04:01:34.466Z,0
2019-01-18T04:02:35.965Z,0
2019-01-18T04:03:37.336Z,0
2019-01-18T04:04:38.731Z,0
2019-01-18T04:05:40.109Z,0
2019-01-18T04:06:41.478Z,0
2019-01-18T04:07:42.863Z,0
2019-01-18T04:08:44.246Z,0
2019-01-18T04:09:45.625Z,0
2019-01-18T04:10:47.043Z,0
2019-01-18T04:11:48.419Z,0
2019-01-18T04:12:49.793Z,0
2019-01-18T04:13:51.167Z,0
2019-01-18T04:14:52.543Z,0
2019-01-18T04:15:53.920Z,0
2019-01-18T04:16:55.297Z,0
2019-01-18T04:17:56.862Z,0
2019-01-18T04:18:58.236Z,0
2019-01-18T04:19:59.768Z,0
2019-01-18T04:21:01.253Z,0
2019-01-18T04:22:02.632Z,0
2019-01-18T04:23:04.008Z,0
2019-01-18T04:24:05.395Z,0
2019-01-18T04:25:06.812Z,0
2019-01-18T04:26:08.194Z,0
2019-01-18T04:27:09.585Z,0
2019-01-18T04:28:10.964Z,0
2019-01-18T04:29:12.348Z,0
2019-01-18T04:30:13.728Z,0
2019-01-18T04:31:15.106Z,0
2019-01-18T04:32:16.489Z,0
2019-01-18T04:33:17.881Z,0
2019-01-18T04:34:19.255Z,0
2019-01-18T04:35:20.639Z,0
2019-01-18T04:36:22.007Z,0
2019-01-18T04:37:23.418Z,0
2019-01-18T04:38:24.805Z,0
2019-01-18T04:39:26.185Z,0
2019-01-18T04:40:27.564Z,0
2019-01-18T04:41:28.940Z,0
2019-01-18T04:42:30.315Z,0
2019-01-18T04:43:32.192Z,0
2019-01-18T04:44:33.563Z,0
2019-01-18T04:45:34.943Z,0
2019-01-18T04:46:36.365Z,0
2019-01-18T04:47:37.742Z,0
2019-01-18T04:48:39.123Z,0
2019-01-18T04:49:40.506Z,0
2019-01-18T04:50:41.881Z,0
2019-01-18T04:51:43.265Z,0
2019-01-18T04:52:44.646Z,0
2019-01-18T04:53:46.026Z,0
2019-01-18T04:54:47.397Z,0
2019-01-18T04:55:48.772Z,0
2019-01-18T04:56:50.149Z,0
2019-01-18T04:57:51.539Z,0
2019-01-18T04:58:52.902Z,0
2019-01-18T04:59:54.292Z,0
2019-01-18T05:00:55.682Z,0
2019-01-18T05:01:57.107Z,0
2019-01-18T05:02:58.478Z,0
2019-01-18T05:03:59.864Z,0
2019-01-18T05:05:01.229Z,0
2019-01-18T05:06:02.612Z,0
2019-01-18T05:07:03.989Z,0
2019-01-18T05:08:05.382Z,0
2019-01-18T05:09:06.754Z,0
2019-01-18T05:10:08.128Z,0
2019-01-18T05:11:09.500Z,0
2019-01-18T05:12:11.105Z,0
2019-01-18T05:13:12.502Z,0
2019-01-18T05:14:13.887Z,0
2019-01-18T05:15:15.262Z,0
2019-01-18T05:16:16.647Z,0
2019-01-18T05:17:18.027Z,0
2019-01-18T05:18:19.411Z,0
2019-01-18T05:19:20.801Z,0
2019-01-18T05:20:22.181Z,0
2019-01-18T05:21:23.567Z,0
2019-01-18T05:22:25.043Z,0
2019-01-18T05:23:26.444Z,0
2019-01-18T05:24:27.825Z,0
2019-01-18T05:25:29.207Z,0
2019-01-18T05:26:30.764Z,0
2019-01-18T05:27:32.175Z,0
2019-01-18T05:28:33.539Z,0
2019-01-18T05:29:34.917Z,0
2019-01-18T05:30:36.295Z,0
2019-01-18T05:31:37.670Z,0
2019-01-18T05:32:39.048Z,0
2019-01-18T05:33:40.427Z,0
2019-01-18T05:34:41.806Z,0
2019-01-18T05:35:43.187Z,0
2019-01-18T05:36:44.562Z,0
2019-01-18T05:37:45.959Z,0
2019-01-18T05:38:47.332Z,0
2019-01-18T05:39:48.716Z,0
2019-01-18T05:40:50.094Z,0
2019-01-18T05:41:51.473Z,0
2019-01-18T05:42:52.862Z,0
2019-01-18T05:43:54.243Z,0
2019-01-18T05:44:55.616Z,0
2019-01-18T05:45:56.990Z,0
2019-01-18T05:46:58.376Z,0
2019-01-18T05:47:59.754Z,0
2019-01-18T05:49:01.136Z,0
2019-01-18T05:50:02.526Z,0
2019-01-18T05:51:03.903Z,0
2019-01-18T05:52:05.278Z,0
2019-01-18T05:53:06.652Z,0
2019-01-18T05:54:08.028Z,0
2019-01-18T05:55:09.412Z,0
2019-01-18T05:56:10.790Z,0
2019-01-18T05:57:12.177Z,0
2019-01-18T05:58:13.557Z,0
2019-01-18T05:59:14.933Z,0
2019-01-18T06:00:16.311Z,0
2019-01-18T06:01:17.681Z,0
2019-01-18T06:02:19.067Z,0
2019-01-18T06:03:20.639Z,0
2019-01-18T06:04:22.088Z,0
2019-01-18T06:05:23.467Z,0
2019-01-18T06:06:24.842Z,0
2019-01-18T06:07:26.218Z,0
2019-01-18T06:08:27.600Z,0
2019-01-18T06:09:28.978Z,0
2019-01-18T06:10:30.359Z,0
2019-01-18T06:11:31.737Z,0
2019-01-18T06:12:33.121Z,0
2019-01-18T06:13:34.494Z,0
2019-01-18T06:14:35.877Z,0
2019-01-18T06:15:37.266Z,0
2019-01-18T06:16:38.645Z,0
2019-01-18T06:17:40.021Z,0
2019-01-18T06:18:41.404Z,0
2019-01-18T06:19:42.786Z,0
2019-01-18T06:20:44.159Z,0
2019-01-18T06:21:45.546Z,0
2019-01-18T06:22:46.927Z,0
2019-01-18T06:23:48.315Z,0
2019-01-18T06:24:49.693Z,0
2019-01-18T06:25:51.075Z,0
2019-01-18T06:26:52.454Z,0
2019-01-18T06:27:53.850Z,0
2019-01-18T06:28:55.222Z,0
2019-01-18T06:29:56.607Z,0
2019-01-18T06:31:01.710Z,0
2019-01-18T06:31:59.327Z,0
2019-01-18T06:33:00.710Z,0
2019-01-18T06:34:02.109Z,0
2019-01-18T06:35:03.508Z,0
2019-01-18T06:36:04.895Z,0
2019-01-18T06:37:06.292Z,0
2019-01-18T06:38:07.697Z,0
2019-01-18T06:39:09.092Z,0
2019-01-18T06:40:10.471Z,0
2019-01-18T06:41:11.979Z,0
2019-01-18T06:42:13.352Z,0
2019-01-18T06:43:14.731Z,0
2019-01-18T06:44:16.107Z,0
2019-01-18T06:45:17.488Z,0
2019-01-18T06:46:18.879Z,0
2019-01-18T06:47:20.269Z,0
2019-01-18T06:48:21.670Z,0
2019-01-18T06:49:23.052Z,0
2019-01-18T06:50:24.464Z,0
2019-01-18T06:51:25.855Z,0
2019-01-18T06:52:27.247Z,0
2019-01-18T06:53:28.690Z,0
2019-01-18T06:54:30.066Z,0
2019-01-18T06:55:31.696Z,0
2019-01-18T06:56:34.225Z,0
2019-01-18T06:57:35.651Z,0
2019-01-18T06:58:37.053Z,0
2019-01-18T06:59:38.487Z,0
2019-01-18T07:00:39.873Z,0
2019-01-18T07:01:41.248Z,0
2019-01-18T07:02:42.624Z,0
2019-01-18T07:03:44.017Z,0
2019-01-18T07:04:45.392Z,0
2019-01-18T07:05:46.767Z,0
2019-01-18T07:06:48.143Z,0
2019-01-18T07:07:49.522Z,0
2019-01-18T07:08:50.906Z,0
2019-01-18T07:09:52.285Z,0
2019-01-18T07:10:53.658Z,0
2019-01-18T07:11:55.035Z,0
2019-01-18T07:12:56.410Z,0
2019-01-18T07:13:57.787Z,0
2019-01-18T07:14:59.171Z,0
2019-01-18T07:16:00.561Z,0
2019-01-18T07:17:01.938Z,0
2019-01-18T07:18:03.322Z,0
2019-01-18T07:19:04.699Z,0
2019-01-18T07:20:06.075Z,0
2019-01-18T07:21:07.454Z,0
2019-01-18T07:22:08.831Z,0
2019-01-18T07:23:10.209Z,0
2019-01-18T07:24:11.589Z,0
2019-01-18T07:25:12.964Z,0
2019-01-18T07:26:14.392Z,0
2019-01-18T07:27:15.776Z,0
2019-01-18T07:28:17.152Z,0
2019-01-18T07:29:18.533Z,0
2019-01-18T07:30:19.903Z,0
2019-01-18T07:31:21.281Z,0
2019-01-18T07:32:22.659Z,0
2019-01-18T07:33:24.038Z,0
2019-01-18T07:34:25.494Z,5
2019-01-18T07:35:26.860Z,5
2019-01-18T07:36:28.239Z,5
2019-01-18T07:37:29.621Z,5
2019-01-18T07:38:31.000Z,5
2019-01-18T07:39:32.377Z,5
2019-01-18T07:40:33.754Z,5
2019-01-18T07:41:35.142Z,5
2019-01-18T07:42:36.520Z,5
2019-01-18T07:43:37.897Z,5
2019-01-18T07:44:39.288Z,5
2019-01-18T07:45:40.832Z,5
2019-01-18T07:46:42.286Z,5
2019-01-18T07:47:43.660Z,11
2019-01-18T07:48:45.042Z,11
2019-01-18T07:49:46.434Z,11
2019-01-18T07:50:47.811Z,11
2019-01-18T07:51:49.195Z,11
2019-01-18T07:52:50.632Z,11
2019-01-18T07:53:52.006Z,11
2019-01-18T07:54:53.384Z,16
2019-01-18T07:55:54.789Z,16
2019-01-18T07:56:56.178Z,16
2019-01-18T07:57:57.560Z,16
2019-01-18T07:58:58.940Z,16
2019-01-18T08:00:00.325Z,16
2019-01-18T08:01:01.705Z,11
2019-01-18T08:02:03.081Z,16
2019-01-18T08:03:04.460Z,16
2019-01-18T08:04:05.910Z,16
2019-01-18T08:05:07.294Z,16
2019-01-18T08:06:08.677Z,16
2019-01-18T08:07:10.058Z,16
2019-01-18T08:08:11.440Z,16
2019-01-18T08:09:12.815Z,22
2019-01-18T08:10:14.199Z,22
2019-01-18T08:11:15.583Z,22
2019-01-18T08:12:16.969Z,22
2019-01-18T08:13:18.348Z,22
2019-01-18T08:14:19.732Z,22
2019-01-18T08:15:21.116Z,22
2019-01-18T08:16:22.497Z,22
2019-01-18T08:17:23.878Z,22
2019-01-18T08:18:25.260Z,22
2019-01-18T08:19:26.642Z,28
2019-01-18T08:20:28.028Z,28
2019-01-18T08:21:29.412Z,28
2019-01-18T08:22:30.789Z,33
2019-01-18T08:23:32.170Z,28
2019-01-18T08:24:33.549Z,33
2019-01-18T08:25:34.929Z,33
2019-01-18T08:26:36.310Z,33
2019-01-18T08:27:37.693Z,33
2019-01-18T08:28:39.089Z,39
2019-01-18T08:29:40.467Z,39
2019-01-18T08:30:41.846Z,39
2019-01-18T08:31:43.223Z,39
2019-01-18T08:32:44.605Z,39
2019-01-18T08:33:45.984Z,39
2019-01-18T08:34:47.371Z,33
2019-01-18T08:35:48.768Z,33
2019-01-18T08:36:50.152Z,33
2019-01-18T08:37:51.687Z,33
2019-01-18T08:38:53.072Z,39
2019-01-18T08:39:54.467Z,39
2019-01-18T08:40:55.845Z,33
2019-01-18T08:41:57.230Z,45
2019-01-18T08:42:58.610Z,45
2019-01-18T08:43:59.993Z,45
2019-01-18T08:45:01.384Z,45
2019-01-18T08:46:02.766Z,45
2019-01-18T08:47:04.148Z,45
2019-01-18T08:48:05.539Z,50
2019-01-18T08:49:06.922Z,50
2019-01-18T08:50:08.319Z,50
2019-01-18T08:51:09.698Z,50
2019-01-18T08:52:11.088Z,50
2019-01-18T08:53:12.469Z,56
2019-01-18T08:54:13.852Z,50
2019-01-18T08:55:15.227Z,45
2019-01-18T08:56:16.786Z,50
2019-01-18T08:57:17.952Z,50
2019-01-18T08:58:19.330Z,45
2019-01-18T08:59:20.712Z,45
2019-01-18T09:00:22.093Z,45
2019-01-18T09:01:23.477Z,39
2019-01-18T09:02:24.856Z,39
2019-01-18T09:03:26.241Z,39
2019-01-18T09:04:27.627Z,39
2019-01-18T09:05:29.014Z,45
2019-01-18T09:06:30.395Z,39
2019-01-18T09:07:31.779Z,45
2019-01-18T09:08:33.161Z,39
2019-01-18T09:09:34.538Z,39
2019-01-18T09:10:35.968Z,39
2019-01-18T09:11:37.303Z,33
2019-01-18T09:12:38.680Z,39
2019-01-18T09:13:40.059Z,39
2019-01-18T09:14:41.435Z,39
2019-01-18T09:15:42.817Z,39
2019-01-18T09:16:44.196Z,39
2019-01-18T09:17:45.583Z,39
2019-01-18T09:18:46.962Z,39
2019-01-18T09:19:48.343Z,39
2019-01-18T09:20:49.731Z,39
2019-01-18T09:21:51.112Z,39
2019-01-18T09:22:52.491Z,45
2019-01-18T09:23:53.871Z,45
2019-01-18T09:24:55.252Z,45
2019-01-18T09:25:56.632Z,50
2019-01-18T09:26:58.029Z,50
2019-01-18T09:27:59.415Z,50
2019-01-18T09:29:00.802Z,50
2019-01-18T09:30:02.469Z,45
2019-01-18T09:31:03.872Z,50
2019-01-18T09:32:05.253Z,56
2019-01-18T09:33:06.640Z,61
2019-01-18T09:34:08.015Z,61
2019-01-18T09:35:09.396Z,73
2019-01-18T09:36:10.777Z,84
2019-01-18T09:37:12.162Z,95
2019-01-18T09:38:17.816Z,106
2019-01-18T09:39:14.899Z,106
2019-01-18T09:40:16.283Z,95
2019-01-18T09:41:17.664Z,101
2019-01-18T09:42:19.043Z,106
2019-01-18T09:43:20.426Z,95
2019-01-18T09:44:21.806Z,84
2019-01-18T09:45:23.189Z,84
2019-01-18T09:46:24.573Z,95
2019-01-18T09:47:25.957Z,106
2019-01-18T09:48:27.339Z,112
2019-01-18T09:49:28.723Z,112
2019-01-18T09:50:30.106Z,118
2019-01-18T09:51:31.494Z,112
2019-01-18T09:52:32.872Z,112
2019-01-18T09:53:34.256Z,112
2019-01-18T09:54:35.640Z,123
2019-01-18T09:55:37.022Z,118
2019-01-18T09:56:38.406Z,118
2019-01-18T09:57:39.789Z,112
2019-01-18T09:58:41.168Z,112
2019-01-18T09:59:42.561Z,129
2019-01-18T10:00:43.948Z,118
2019-01-18T10:01:49.214Z,123
2019-01-18T10:02:46.676Z,118
2019-01-18T10:03:48.060Z,118
2019-01-18T10:04:49.443Z,118
2019-01-18T10:05:50.851Z,112
2019-01-18T10:06:52.242Z,118
2019-01-18T10:07:53.628Z,135
2019-01-18T10:08:55.017Z,140
2019-01-18T10:09:56.398Z,157
2019-01-18T10:10:57.784Z,151
2019-01-18T10:11:59.171Z,151
2019-01-18T10:13:00.553Z,140
2019-01-18T10:14:01.944Z,146
2019-01-18T10:15:03.333Z,157
2019-01-18T10:16:04.725Z,168
2019-01-18T10:17:06.107Z,168
2019-01-18T10:18:07.543Z,168
2019-01-18T10:19:08.923Z,163
2019-01-18T10:20:10.310Z,163
2019-01-18T10:21:11.762Z,163
2019-01-18T10:22:13.249Z,168
2019-01-18T10:23:14.634Z,168
2019-01-18T10:24:16.020Z,157
2019-01-18T10:25:17.401Z,157
2019-01-18T10:26:18.788Z,174
2019-01-18T10:27:23.862Z,174
2019-01-18T10:28:21.524Z,168
2019-01-18T10:29:28.092Z,151
2019-01-18T10:30:24.257Z,151
2019-01-18T10:31:25.667Z,157
2019-01-18T10:32:27.044Z,174
2019-01-18T10:33:28.428Z,174
2019-01-18T10:34:29.831Z,180
2019-01-18T10:35:31.261Z,208
2019-01-18T10:36:32.645Z,180
2019-01-18T10:37:34.033Z,174
2019-01-18T10:38:35.416Z,157
2019-01-18T10:39:36.808Z,140
2019-01-18T10:40:38.187Z,140
2019-01-18T10:41:39.577Z,151
2019-01-18T10:42:40.963Z,168
2019-01-18T10:43:42.346Z,196
2019-01-18T10:44:43.738Z,264
2019-01-18T10:45:45.123Z,264
2019-01-18T10:46:46.505Z,303
2019-01-18T10:47:47.889Z,331
2019-01-18T10:48:49.278Z,281
2019-01-18T10:49:50.660Z,241
2019-01-18T10:50:52.044Z,303
2019-01-18T10:51:53.445Z,264
2019-01-18T10:52:54.830Z,337
2019-01-18T10:53:56.214Z,286
2019-01-18T10:54:57.616Z,303
2019-01-18T10:55:59.003Z,298
2019-01-18T10:57:00.399Z,275
2019-01-18T10:58:01.860Z,343
2019-01-18T10:59:03.249Z,343
2019-01-18T11:00:04.643Z,354
2019-01-18T11:01:06.034Z,343
2019-01-18T11:02:07.519Z,315
2019-01-18T11:03:09.123Z,331
2019-01-18T11:04:10.122Z,365
2019-01-18T11:05:11.508Z,326
2019-01-18T11:06:12.903Z,354
2019-01-18T11:07:14.287Z,360
2019-01-18T11:08:17.506Z,354
2019-01-18T11:09:17.028Z,365
2019-01-18T11:10:18.414Z,337
2019-01-18T11:11:19.801Z,320
2019-01-18T11:12:21.267Z,365
2019-01-18T11:13:22.828Z,315
2019-01-18T11:14:24.199Z,275
2019-01-18T11:15:25.593Z,202
2019-01-18T11:16:26.983Z,180
2019-01-18T11:17:28.374Z,196
2019-01-18T11:18:29.760Z,168
2019-01-18T11:19:31.145Z,135
2019-01-18T11:20:32.538Z,129
2019-01-18T11:21:33.971Z,129
2019-01-18T11:22:35.316Z,129
2019-01-18T11:23:36.706Z,129
2019-01-18T11:24:38.091Z,123
2019-01-18T11:25:39.482Z,129
2019-01-18T11:26:40.862Z,157
2019-01-18T11:27:42.251Z,168
2019-01-18T11:28:43.648Z,157
2019-01-18T11:29:45.033Z,118
2019-01-18T11:30:46.422Z,101
2019-01-18T11:31:47.802Z,95
2019-01-18T11:32:49.189Z,84
2019-01-18T11:33:50.597Z,118
2019-01-18T11:34:51.991Z,123
2019-01-18T11:35:53.382Z,112
2019-01-18T11:36:56.688Z,90
2019-01-18T11:37:56.111Z,95
2019-01-18T11:38:57.509Z,101
2019-01-18T11:39:58.886Z,118
2019-01-18T11:41:00.280Z,123
2019-01-18T11:42:05.229Z,129
2019-01-18T11:43:03.015Z,146
2019-01-18T11:44:04.396Z,140
2019-01-18T11:45:05.787Z,140
2019-01-18T11:46:07.177Z,163
2019-01-18T11:47:08.587Z,123
2019-01-18T11:48:09.978Z,123
2019-01-18T11:49:11.368Z,123
2019-01-18T11:50:12.749Z,140
2019-01-18T11:51:14.160Z,180
2019-01-18T11:52:15.608Z,281
2019-01-18T11:53:16.996Z,208
2019-01-18T11:54:18.393Z,225
2019-01-18T11:55:19.778Z,213
2019-01-18T11:56:21.167Z,174
2019-01-18T11:57:22.755Z,168
2019-01-18T11:58:24.754Z,174
2019-01-18T11:59:26.280Z,213
2019-01-18T12:00:27.801Z,241
2019-01-18T12:01:29.354Z,230
2019-01-18T12:02:30.892Z,213
2019-01-18T12:03:32.425Z,213
2019-01-18T12:04:33.862Z,208
2019-01-18T12:05:35.437Z,241
2019-01-18T12:06:37.044Z,230
2019-01-18T12:07:38.434Z,196
2019-01-18T12:08:41.910Z,168
2019-01-18T12:09:41.189Z,174
2019-01-18T12:10:42.577Z,174
2019-01-18T12:11:43.962Z,135
2019-01-18T12:12:45.354Z,140
2019-01-18T12:13:46.742Z,146
2019-01-18T12:14:48.126Z,129
2019-01-18T12:15:49.510Z,151
2019-01-18T12:16:50.899Z,140
2019-01-18T12:17:52.285Z,140
2019-01-18T12:18:53.698Z,168
2019-01-18T12:19:55.086Z,174
2019-01-18T12:20:56.499Z,191
2019-01-18T12:21:57.883Z,202
2019-01-18T12:22:59.272Z,219
2019-01-18T12:24:00.729Z,180
2019-01-18T12:25:02.136Z,168
2019-01-18T12:26:03.503Z,253
2019-01-18T12:27:04.898Z,371
2019-01-18T12:28:06.279Z,438
2019-01-18T12:29:07.669Z,433
2019-01-18T12:30:09.056Z,393
2019-01-18T12:31:10.449Z,331
2019-01-18T12:32:11.838Z,393
2019-01-18T12:33:13.223Z,427
2019-01-18T12:34:14.612Z,303
2019-01-18T12:35:16.008Z,478
2019-01-18T12:36:17.394Z,478
2019-01-18T12:37:18.786Z,500
2019-01-18T12:38:20.175Z,478
2019-01-18T12:39:21.559Z,545
2019-01-18T12:40:22.948Z,680
2019-01-18T12:41:24.340Z,568
2019-01-18T12:42:25.723Z,528
2019-01-18T12:43:27.113Z,450
2019-01-18T12:44:28.495Z,573
2019-01-18T12:45:29.882Z,331
2019-01-18T12:46:31.275Z,292
2019-01-18T12:47:32.660Z,247
2019-01-18T12:48:34.048Z,258
2019-01-18T12:49:35.437Z,230
2019-01-18T12:50:36.959Z,286
2019-01-18T12:51:38.441Z,196
2019-01-18T12:52:39.823Z,298
2019-01-18T12:53:41.211Z,286
2019-01-18T12:54:42.597Z,270
2019-01-18T12:55:43.988Z,236
2019-01-18T12:56:45.380Z,213
2019-01-18T12:57:46.771Z,219
2019-01-18T12:58:48.152Z,196
2019-01-18T12:59:49.546Z,180
2019-01-18T13:00:50.934Z,174
2019-01-18T13:01:52.359Z,151
2019-01-18T13:02:53.744Z,140
2019-01-18T19:27:36.946Z,0
2019-01-18T19:28:38.322Z,0
2019-01-18T19:29:39.709Z,0
2019-01-18T19:30:41.078Z,0
2019-01-18T19:31:42.453Z,0
2019-01-18T19:32:43.828Z,0
2019-01-18T19:33:45.205Z,0
2019-01-18T19:34:46.583Z,0
2019-01-18T19:35:47.959Z,0
2019-01-18T19:36:49.336Z,0
2019-01-18T19:37:50.773Z,0
2019-01-18T19:38:52.148Z,0
2019-01-18T19:39:53.529Z,0
2019-01-18T19:40:54.904Z,0
2019-01-18T19:41:56.280Z,0
2019-01-18T19:42:57.687Z,0
2019-01-18T19:43:59.071Z,0
2019-01-18T19:45:00.504Z,0
2019-01-18T19:46:01.891Z,0
2019-01-18T19:47:03.266Z,0
2019-01-18T19:48:04.644Z,0
2019-01-18T19:49:06.022Z,0
2019-01-18T19:50:07.406Z,0
2019-01-18T19:51:08.783Z,0
2019-01-18T19:52:10.165Z,0
2019-01-18T19:53:11.545Z,0
2019-01-18T19:54:12.933Z,0
2019-01-18T19:55:14.307Z,0
2019-01-18T19:56:15.684Z,0
2019-01-18T19:57:17.106Z,0
2019-01-18T19:58:18.438Z,0
2019-01-18T19:59:19.816Z,0
2019-01-18T20:00:21.197Z,0
2019-01-18T20:01:22.578Z,0
2019-01-18T20:02:23.954Z,0
2019-01-18T20:03:25.333Z,0
2019-01-18T20:04:26.706Z,0
2019-01-18T20:05:28.080Z,0
2019-01-18T20:06:29.461Z,0
2019-01-18T20:07:30.834Z,0
2019-01-18T20:08:32.211Z,0
2019-01-18T20:09:33.588Z,0
2019-01-18T20:10:34.968Z,0
2019-01-18T20:11:36.351Z,0
2019-01-18T20:12:37.732Z,0
2019-01-18T20:13:39.109Z,0
2019-01-18T20:14:40.487Z,0
2019-01-18T20:15:41.865Z,0
2019-01-18T20:16:43.247Z,0
2019-01-18T20:17:44.627Z,0
2019-01-18T20:18:46.006Z,0
2019-01-18T20:19:47.376Z,0
2019-01-18T20:20:48.757Z,0
2019-01-18T20:21:50.143Z,0
2019-01-18T20:22:51.530Z,0
2019-01-18T20:23:52.909Z,0
2019-01-18T20:24:54.290Z,0
2019-01-18T20:25:55.673Z,0
2019-01-18T20:26:57.050Z,0
2019-01-18T20:27:58.431Z,0
2019-01-18T20:28:59.805Z,0
2019-01-18T20:30:01.180Z,0
2019-01-18T20:31:02.556Z,0
2019-01-18T20:32:03.928Z,0
2019-01-18T20:33:05.306Z,0
2019-01-18T20:34:06.693Z,0
2019-01-18T20:35:08.087Z,0
2019-01-18T20:36:09.474Z,0
2019-01-18T20:37:10.849Z,0
2019-01-18T20:38:12.231Z,0
2019-01-18T20:39:13.612Z,0
2019-01-18T20:40:14.986Z,0
2019-01-18T20:41:16.376Z,0
2019-01-18T20:42:17.763Z,0
2019-01-18T20:43:19.130Z,0
2019-01-18T20:44:20.517Z,0
2019-01-18T20:45:21.896Z,0
2019-01-18T20:46:23.317Z,0
2019-01-18T20:47:24.700Z,0
2019-01-18T20:48:26.078Z,0
2019-01-18T20:49:27.452Z,0
2019-01-18T20:50:28.829Z,0
2019-01-18T20:51:30.206Z,0
2019-01-18T20:52:31.587Z,0
2019-01-18T20:53:32.961Z,0
2019-01-18T20:54:34.336Z,0
2019-01-18T20:55:35.716Z,0
2019-01-18T20:56:37.098Z,0
2019-01-18T20:57:38.477Z,0
2019-01-18T20:58:39.855Z,0
2019-01-18T20:59:41.236Z,0
2019-01-18T21:00:42.618Z,0
2019-01-18T21:01:43.995Z,0
2019-01-18T21:02:45.371Z,0
2019-01-18T21:03:46.749Z,0
2019-01-18T21:04:48.130Z,0
2019-01-18T21:05:49.511Z,0
2019-01-18T21:06:50.896Z,0
2019-01-18T21:07:52.271Z,0
2019-01-18T21:08:53.642Z,0
2019-01-18T21:09:55.038Z,0
2019-01-18T21:10:56.410Z,0
2019-01-18T21:11:57.787Z,0